Tenacious — ZQHM2 — position and weather

sailwx.info

Track history (hours):
 
Tides and Currents Weather Stations Pressure Air Temp Water Temp Dewpoint Dewpoint Depression Visibility Wind Speed Wind Dir Waves Ship Positions

Tenacious (United Kingdom)

Ship's website: http://www.jst.org.uk/

Last reported at 2019-Dec-08 10:00 UTC. Time now 2019-Dec-08 10:57 UTC.
Position N 28°08' W 015°26'.

Length 65 m; beam 10.6 m; draft 4.6 m.

Type: Sailing vessel. MMSI: 235000230.

Date/timePositionNaut miles runAvg speedWind from/ knotsBaromVisibWave heightAir tempDewpointWater temp
2019-Dec-08 10:00N 28°08' W 015°26'0 0.0
2019-Dec-08 09:00N 28°08' W 015°26'0 0.0
2019-Dec-08 03:27N 28°08' W 015°26'0 0.0
2019-Dec-08 03:00N 28°08' W 015°26'0 0.0
2019-Dec-08 02:30N 28°08' W 015°26'0 0.0
2019-Dec-08 01:26N 28°08' W 015°26'0 0.0
2019-Dec-07 23:59N 28°08' W 015°26'0 0.0
2019-Dec-07 23:26N 28°08' W 015°26'0 0.0
2019-Dec-07 21:26N 28°08' W 015°26'0 0.0
2019-Dec-07 20:29N 28°08' W 015°26'0 0.0
2019-Dec-07 15:29N 28°08' W 015°26'0 0.0
2019-Dec-07 14:27N 28°08' W 015°26'0 0.0
2019-Dec-07 13:57N 28°08' W 015°26'0 0.0
2019-Dec-07 10:30N 28°08' W 015°26'0 0.0
2019-Dec-07 09:30N 28°08' W 015°26'0 0.0
2019-Dec-07 08:30N 28°08' W 015°26'0 0.0
2019-Dec-07 07:00N 28°08' W 015°26'0 0.0
2019-Dec-07 06:30N 28°08' W 015°26'0 0.0
2019-Dec-07 04:30N 28°08' W 015°26'0 0.0
2019-Dec-07 03:00N 28°08' W 015°26'0 0.0
2019-Dec-07 00:54N 28°08' W 015°26'0 0.0
2019-Dec-07 00:00N 28°08' W 015°26'0 0.0
2019-Dec-06 23:30N 28°08' W 015°26'0 0.0
2019-Dec-06 21:30N 28°08' W 015°26'0 0.0
2019-Dec-06 20:57N 28°08' W 015°26'0 0.0
2019-Dec-06 20:00N 28°08' W 015°26'0 0.0
2019-Dec-06 19:30N 28°08' W 015°26'0 0.0
2019-Dec-06 17:59N 28°08' W 015°26'0 0.0
2019-Dec-06 16:59N 28°08' W 015°26'0 0.0
2019-Dec-06 15:59N 28°08' W 015°26'0 0.0
2019-Dec-06 14:29N 28°08' W 015°26'0 0.0
2019-Dec-06 13:59N 28°08' W 015°26'0 0.0
2019-Dec-06 12:59N 28°08' W 015°26'0 0.0
2019-Dec-06 12:29N 28°08' W 015°26'0 0.0
2019-Dec-06 11:59N 28°08' W 015°26'0 0.0
2019-Dec-06 10:53N 28°08' W 015°26'0 0.0
2019-Dec-06 06:59N 28°08' W 015°26'0 0.0
2019-Dec-06 06:26N 28°08' W 015°26'0 0.0
2019-Dec-06 04:26N 28°08' W 015°26'0 0.0
2019-Dec-06 01:59N 28°08' W 015°26'0 0.0
2019-Dec-06 01:29N 28°08' W 015°26'0 0.0
2019-Dec-05 22:29N 28°08' W 015°26'0 0.0
2019-Dec-05 19:29N 28°08' W 015°26'0 0.0
2019-Dec-05 18:29N 28°08' W 015°26'0 0.0
2019-Dec-05 17:29N 28°08' W 015°26'0 0.0
2019-Dec-05 16:30N 28°08' W 015°26'0 0.0
2019-Dec-05 15:30N 28°08' W 015°26'2 1.1
2019-Dec-05 13:30N 28°08' W 015°23'4 8.3
2019-Dec-05 13:00N 28°12' W 015°23'9 4.4
2019-Dec-05 11:00N 28°18' W 015°30'2612.9 330 / 171015.7 5.4 19.515.3
2019-Dec-05 09:00N 28°31' W 015°55'13 4.2
2019-Dec-05 06:00N 28°25' W 016°08'1 2.6
2019-Dec-05 05:30N 28°24' W 016°07'1 2.6
2019-Dec-05 05:00N 28°22' W 016°08'5 1.6
2019-Dec-05 02:00N 28°25' W 016°13'4 4.3
2019-Dec-05 01:00N 28°22' W 016°17'  
2019-Nov-30 22:55N 28°41' W 016°27'12 8.2
2019-Nov-30 21:26N 28°40' W 016°14'7 7.5
2019-Nov-30 20:30N 28°40' W 016°06'11 7.6
2019-Nov-30 19:00N 28°34' W 015°54'3 6.3
2019-Nov-30 18:29N 28°33' W 015°51'23 4.6
2019-Nov-30 13:30N 28°18' W 015°31'8 8.4
2019-Nov-30 12:30N 28°14' W 015°23'6 0.8
2019-Nov-30 05:25N 28°08' W 015°26'0 0.0
2019-Nov-30 04:58N 28°08' W 015°26'0 0.0
2019-Nov-30 03:28N 28°08' W 015°26'0 0.0
2019-Nov-30 02:28N 28°08' W 015°26'0 0.0
2019-Nov-30 00:58N 28°08' W 015°26'0 0.0
2019-Nov-29 22:58N 28°08' W 015°26'0 0.0
2019-Nov-29 21:28N 28°08' W 015°26'0 0.0
2019-Nov-29 20:58N 28°08' W 015°26'0 0.0
2019-Nov-29 20:28N 28°08' W 015°26'0 0.0
2019-Nov-29 19:28N 28°08' W 015°26'0 0.0
2019-Nov-29 17:58N 28°08' W 015°26'0 0.0
2019-Nov-29 17:28N 28°08' W 015°26'0 0.0
2019-Nov-29 16:25N 28°08' W 015°26'0 0.0
2019-Nov-29 15:58N 28°08' W 015°26'0 0.0
2019-Nov-29 15:28N 28°08' W 015°26'0 0.0
2019-Nov-29 13:55N 28°08' W 015°26'0 0.0
2019-Nov-29 11:58N 28°08' W 015°26'0 0.0
2019-Nov-29 11:25N 28°08' W 015°26'0 0.0
2019-Nov-29 09:28N 28°08' W 015°26'0 0.0
2019-Nov-29 07:28N 28°08' W 015°26'0 0.0
2019-Nov-29 06:58N 28°08' W 015°26'0 0.0
2019-Nov-29 06:25N 28°08' W 015°26'0 0.0
2019-Nov-29 04:58N 28°08' W 015°26'0 0.0
2019-Nov-29 04:28N 28°08' W 015°26'0 0.0
2019-Nov-29 03:28N 28°08' W 015°26'0 0.0
2019-Nov-29 02:28N 28°08' W 015°26'0 0.0
2019-Nov-29 01:58N 28°08' W 015°26'0 0.0
2019-Nov-29 00:28N 28°08' W 015°26'0 0.0
2019-Nov-28 21:28N 28°08' W 015°26'0 0.0
2019-Nov-28 19:58N 28°08' W 015°26'0 0.0
2019-Nov-28 19:28N 28°08' W 015°26'0 0.0
2019-Nov-28 18:58N 28°08' W 015°26'0 0.0
2019-Nov-28 17:58N 28°08' W 015°26'0 0.0
2019-Nov-28 16:31N 28°08' W 015°26'0 0.0
2019-Nov-28 16:00N 28°08' W 015°26'0 0.0
2019-Nov-28 14:30N 28°08' W 015°26'0 0.0
2019-Nov-28 14:00N 28°08' W 015°26'0 0.0
2019-Nov-28 13:30N 28°08' W 015°26'  
Track history (hours):
 
Tides and Currents Weather Stations Pressure Air Temp Water Temp Dewpoint Dewpoint Depression Visibility Wind Speed Wind Dir Waves Ship Positions

Tenacious (United Kingdom)

Ship's website: http://www.jst.org.uk/

Last reported at 2019-Dec-08 10:00 UTC. Time now 2019-Dec-08 10:57 UTC.
Position N 28°08' W 015°26'.

Length 65 m; beam 10.6 m; draft 4.6 m.

Type: Sailing vessel. MMSI: 235000230.

Date/timePositionNaut miles runAvg speedWind from/ knotsBaromVisibWave heightAir tempDewpointWater temp
2019-Dec-08 10:00N 28°08' W 015°26'0 0.0
2019-Dec-08 09:00N 28°08' W 015°26'0 0.0
2019-Dec-08 03:27N 28°08' W 015°26'0 0.0
2019-Dec-08 03:00N 28°08' W 015°26'0 0.0
2019-Dec-08 02:30N 28°08' W 015°26'0 0.0
2019-Dec-08 01:26N 28°08' W 015°26'0 0.0
2019-Dec-07 23:59N 28°08' W 015°26'0 0.0
2019-Dec-07 23:26N 28°08' W 015°26'0 0.0
2019-Dec-07 21:26N 28°08' W 015°26'0 0.0
2019-Dec-07 20:29N 28°08' W 015°26'0 0.0
2019-Dec-07 15:29N 28°08' W 015°26'0 0.0
2019-Dec-07 14:27N 28°08' W 015°26'0 0.0
2019-Dec-07 13:57N 28°08' W 015°26'0 0.0
2019-Dec-07 10:30N 28°08' W 015°26'0 0.0
2019-Dec-07 09:30N 28°08' W 015°26'0 0.0
2019-Dec-07 08:30N 28°08' W 015°26'0 0.0
2019-Dec-07 07:00N 28°08' W 015°26'0 0.0
2019-Dec-07 06:30N 28°08' W 015°26'0 0.0
2019-Dec-07 04:30N 28°08' W 015°26'0 0.0
2019-Dec-07 03:00N 28°08' W 015°26'0 0.0
2019-Dec-07 00:54N 28°08' W 015°26'0 0.0
2019-Dec-07 00:00N 28°08' W 015°26'0 0.0
2019-Dec-06 23:30N 28°08' W 015°26'0 0.0
2019-Dec-06 21:30N 28°08' W 015°26'0 0.0
2019-Dec-06 20:57N 28°08' W 015°26'0 0.0
2019-Dec-06 20:00N 28°08' W 015°26'0 0.0
2019-Dec-06 19:30N 28°08' W 015°26'0 0.0
2019-Dec-06 17:59N 28°08' W 015°26'0 0.0
2019-Dec-06 16:59N 28°08' W 015°26'0 0.0
2019-Dec-06 15:59N 28°08' W 015°26'0 0.0
2019-Dec-06 14:29N 28°08' W 015°26'0 0.0
2019-Dec-06 13:59N 28°08' W 015°26'0 0.0
2019-Dec-06 12:59N 28°08' W 015°26'0 0.0
2019-Dec-06 12:29N 28°08' W 015°26'0 0.0
2019-Dec-06 11:59N 28°08' W 015°26'0 0.0
2019-Dec-06 10:53N 28°08' W 015°26'0 0.0
2019-Dec-06 06:59N 28°08' W 015°26'0 0.0
2019-Dec-06 06:26N 28°08' W 015°26'0 0.0
2019-Dec-06 04:26N 28°08' W 015°26'0 0.0
2019-Dec-06 01:59N 28°08' W 015°26'0 0.0
2019-Dec-06 01:29N 28°08' W 015°26'0 0.0
2019-Dec-05 22:29N 28°08' W 015°26'0 0.0
2019-Dec-05 19:29N 28°08' W 015°26'0 0.0
2019-Dec-05 18:29N 28°08' W 015°26'0 0.0
2019-Dec-05 17:29N 28°08' W 015°26'0 0.0
2019-Dec-05 16:30N 28°08' W 015°26'0 0.0
2019-Dec-05 15:30N 28°08' W 015°26'2 1.1
2019-Dec-05 13:30N 28°08' W 015°23'4 8.3
2019-Dec-05 13:00N 28°12' W 015°23'9 4.4
2019-Dec-05 11:00N 28°18' W 015°30'2612.9 330 / 171015.7 5.4 19.515.3
2019-Dec-05 09:00N 28°31' W 015°55'13 4.2
2019-Dec-05 06:00N 28°25' W 016°08'1 2.6
2019-Dec-05 05:30N 28°24' W 016°07'1 2.6
2019-Dec-05 05:00N 28°22' W 016°08'5 1.6
2019-Dec-05 02:00N 28°25' W 016°13'4 4.3
2019-Dec-05 01:00N 28°22' W 016°17'  
2019-Nov-30 22:55N 28°41' W 016°27'12 8.2
2019-Nov-30 21:26N 28°40' W 016°14'7 7.5
2019-Nov-30 20:30N 28°40' W 016°06'11 7.6
2019-Nov-30 19:00N 28°34' W 015°54'3 6.3
2019-Nov-30 18:29N 28°33' W 015°51'23 4.6
2019-Nov-30 13:30N 28°18' W 015°31'8 8.4
2019-Nov-30 12:30N 28°14' W 015°23'6 0.8
2019-Nov-30 05:25N 28°08' W 015°26'0 0.0
2019-Nov-30 04:58N 28°08' W 015°26'0 0.0
2019-Nov-30 03:28N 28°08' W 015°26'0 0.0
2019-Nov-30 02:28N 28°08' W 015°26'0 0.0
2019-Nov-30 00:58N 28°08' W 015°26'0 0.0
2019-Nov-29 22:58N 28°08' W 015°26'0 0.0
2019-Nov-29 21:28N 28°08' W 015°26'0 0.0
2019-Nov-29 20:58N 28°08' W 015°26'0 0.0
2019-Nov-29 20:28N 28°08' W 015°26'0 0.0
2019-Nov-29 19:28N 28°08' W 015°26'0 0.0
2019-Nov-29 17:58N 28°08' W 015°26'0 0.0
2019-Nov-29 17:28N 28°08' W 015°26'0 0.0
2019-Nov-29 16:25N 28°08' W 015°26'0 0.0
2019-Nov-29 15:58N 28°08' W 015°26'0 0.0
2019-Nov-29 15:28N 28°08' W 015°26'0 0.0
2019-Nov-29 13:55N 28°08' W 015°26'0 0.0
2019-Nov-29 11:58N 28°08' W 015°26'0 0.0
2019-Nov-29 11:25N 28°08' W 015°26'0 0.0
2019-Nov-29 09:28N 28°08' W 015°26'0 0.0
2019-Nov-29 07:28N 28°08' W 015°26'0 0.0
2019-Nov-29 06:58N 28°08' W 015°26'0 0.0
2019-Nov-29 06:25N 28°08' W 015°26'0 0.0
2019-Nov-29 04:58N 28°08' W 015°26'0 0.0
2019-Nov-29 04:28N 28°08' W 015°26'0 0.0
2019-Nov-29 03:28N 28°08' W 015°26'0 0.0
2019-Nov-29 02:28N 28°08' W 015°26'0 0.0
2019-Nov-29 01:58N 28°08' W 015°26'0 0.0
2019-Nov-29 00:28N 28°08' W 015°26'0 0.0
2019-Nov-28 21:28N 28°08' W 015°26'0 0.0
2019-Nov-28 19:58N 28°08' W 015°26'0 0.0
2019-Nov-28 19:28N 28°08' W 015°26'0 0.0
2019-Nov-28 18:58N 28°08' W 015°26'0 0.0
2019-Nov-28 17:58N 28°08' W 015°26'0 0.0
2019-Nov-28 16:31N 28°08' W 015°26'0 0.0
2019-Nov-28 16:00N 28°08' W 015°26'0 0.0
2019-Nov-28 14:30N 28°08' W 015°26'0 0.0
2019-Nov-28 14:00N 28°08' W 015°26'0 0.0
2019-Nov-28 13:30N 28°08' W 015°26'  

Dump ship's entire track history